createdAt,value
2023-05-20T00:00:25.774Z,39.46
2023-05-20T00:01:25.775Z,39.49
2023-05-20T00:02:25.910Z,39.47
2023-05-20T00:03:26.019Z,39.49
2023-05-20T00:04:25.918Z,39.48
2023-05-20T00:05:25.894Z,39.50
2023-05-20T00:06:25.913Z,39.49
2023-05-20T00:07:25.972Z,39.51
2023-05-20T00:08:26.019Z,39.49
2023-05-20T00:09:26.051Z,39.47
2023-05-20T00:10:26.050Z,39.49
2023-05-20T00:11:26.099Z,39.47
2023-05-20T00:12:26.112Z,39.51
2023-05-20T00:13:26.169Z,39.49
2023-05-20T00:14:26.226Z,39.48
2023-05-20T00:15:26.231Z,39.48
2023-05-20T00:16:26.324Z,39.48
2023-05-20T00:17:26.362Z,39.46
2023-05-20T00:18:26.398Z,39.48
2023-05-20T00:19:26.450Z,39.47
2023-05-20T00:20:26.440Z,39.49
2023-05-20T00:21:26.482Z,39.47
2023-05-20T00:22:26.512Z,39.47
2023-05-20T00:23:26.562Z,39.47
2023-05-20T00:24:26.619Z,39.48
2023-05-20T00:25:26.687Z,39.48
2023-05-20T00:26:26.725Z,39.49
2023-05-20T00:27:26.733Z,39.47
2023-05-20T00:28:26.803Z,39.49
2023-05-20T00:29:26.861Z,39.47
2023-05-20T00:30:26.881Z,39.46
2023-05-20T00:31:26.978Z,39.47
2023-05-20T00:32:27.213Z,39.48
2023-05-20T00:33:27.035Z,39.49
2023-05-20T00:34:27.046Z,39.49
2023-05-20T00:35:27.149Z,39.47
2023-05-20T00:36:27.159Z,39.49
2023-05-20T00:37:27.216Z,39.48
2023-05-20T00:38:27.219Z,39.49
2023-05-20T00:39:27.260Z,39.49
2023-05-20T00:40:27.314Z,39.46
2023-05-20T00:41:27.359Z,39.49
2023-05-20T00:42:27.403Z,39.48
2023-05-20T00:43:27.425Z,39.49
2023-05-20T00:44:27.501Z,39.45
2023-05-20T00:45:27.514Z,39.45
2023-05-20T00:46:27.625Z,39.48
2023-05-20T00:47:27.615Z,39.49
2023-05-20T00:48:27.629Z,39.46
2023-05-20T00:49:27.695Z,39.48
2023-05-20T00:50:27.712Z,39.48
2023-05-20T00:51:27.771Z,39.45
2023-05-20T00:52:27.789Z,39.46
2023-05-20T00:53:27.839Z,39.49
2023-05-20T00:54:27.891Z,39.47
2023-05-20T00:55:27.901Z,39.48
2023-05-20T00:56:27.960Z,39.49
2023-05-20T00:57:28.012Z,39.48
2023-05-20T00:58:28.061Z,39.47
2023-05-20T00:59:28.083Z,39.49
2023-05-20T01:00:28.156Z,39.49
2023-05-20T01:01:28.204Z,39.47
2023-05-20T01:02:28.279Z,39.49
2023-05-20T01:03:28.354Z,39.49
2023-05-20T01:04:28.242Z,39.49
2023-05-20T01:05:28.266Z,39.49
2023-05-20T01:06:28.306Z,39.51
2023-05-20T01:07:28.333Z,39.49
2023-05-20T01:08:28.382Z,39.51
2023-05-20T01:09:28.417Z,39.50
2023-05-20T01:10:28.448Z,39.52
2023-05-20T01:11:28.466Z,39.50
2023-05-20T01:12:28.516Z,39.48
2023-05-20T01:13:28.553Z,39.49
2023-05-20T01:14:28.579Z,39.51
2023-05-20T01:15:28.613Z,39.49
2023-05-20T01:16:28.676Z,39.49
2023-05-20T01:17:28.708Z,39.50
2023-05-20T01:18:28.694Z,39.49
2023-05-20T01:19:28.758Z,39.49
2023-05-20T01:20:28.757Z,39.50
2023-05-20T01:21:28.783Z,39.47
2023-05-20T01:22:28.812Z,39.49
2023-05-20T01:23:28.855Z,39.46
2023-05-20T01:24:28.893Z,39.51
2023-05-20T01:25:28.942Z,39.49
2023-05-20T01:26:28.968Z,39.47
2023-05-20T01:27:29.008Z,39.48
2023-05-20T01:28:29.040Z,39.50
2023-05-20T01:29:29.093Z,39.50
2023-05-20T01:30:29.141Z,39.48
2023-05-20T01:31:29.207Z,39.47
2023-05-20T01:32:29.257Z,39.49
2023-05-20T01:33:29.276Z,39.47
2023-05-20T01:34:29.304Z,39.46
2023-05-20T01:35:29.355Z,39.46
2023-05-20T01:36:29.374Z,39.49
2023-05-20T01:37:29.404Z,39.48
2023-05-20T01:38:29.470Z,39.49
2023-05-20T01:39:29.486Z,39.51
2023-05-20T01:40:29.507Z,39.47
2023-05-20T01:41:29.593Z,39.49
2023-05-20T01:42:29.661Z,39.49
2023-05-20T01:43:29.640Z,39.47
2023-05-20T01:44:29.678Z,39.45
2023-05-20T01:45:29.733Z,39.47
2023-05-20T01:46:29.861Z,39.46
2023-05-20T01:47:29.850Z,39.49
2023-05-20T01:48:29.866Z,39.49
2023-05-20T01:49:29.915Z,39.47
2023-05-20T01:50:29.978Z,39.49
2023-05-20T01:51:30.021Z,39.49
2023-05-20T01:52:30.067Z,39.48
2023-05-20T01:53:30.131Z,39.48
2023-05-20T01:54:30.177Z,39.47
2023-05-20T01:55:30.214Z,39.48
2023-05-20T01:56:30.262Z,39.48
2023-05-20T01:57:30.308Z,39.46
2023-05-20T01:58:30.341Z,39.45
2023-05-20T01:59:30.365Z,39.48
2023-05-20T02:00:30.390Z,39.47
2023-05-20T02:01:30.514Z,39.49
2023-05-20T02:02:30.554Z,39.47
2023-05-20T02:03:30.518Z,39.49
2023-05-20T02:04:30.510Z,39.51
2023-05-20T02:05:30.599Z,39.47
2023-05-20T02:06:30.629Z,39.49
2023-05-20T02:07:30.669Z,39.50
2023-05-20T02:08:30.673Z,39.48
2023-05-20T02:09:30.708Z,39.50
2023-05-20T02:10:30.745Z,39.51
2023-05-20T02:11:30.775Z,39.48
2023-05-20T02:12:30.824Z,39.48
2023-05-20T02:13:30.855Z,39.49
2023-05-20T02:14:30.877Z,39.47
2023-05-20T02:15:30.909Z,39.51
2023-05-20T02:16:30.971Z,39.49
2023-05-20T02:17:30.987Z,39.48
2023-05-20T02:18:30.976Z,39.46
2023-05-20T02:19:31.035Z,39.47
2023-05-20T02:20:31.022Z,39.48
2023-05-20T02:21:31.044Z,39.48
2023-05-20T02:22:31.070Z,39.49
2023-05-20T02:23:31.103Z,39.48
2023-05-20T02:24:31.122Z,39.49
2023-05-20T02:25:31.202Z,39.48
2023-05-20T02:26:31.208Z,39.47
2023-05-20T02:27:31.255Z,39.47
2023-05-20T02:28:31.308Z,39.51
2023-05-20T02:29:31.341Z,39.49
2023-05-20T02:30:31.370Z,39.48
2023-05-20T02:31:31.439Z,39.47
2023-05-20T02:32:31.497Z,39.48
2023-05-20T02:33:31.545Z,39.49
2023-05-20T02:34:31.687Z,39.47
2023-05-20T02:35:31.724Z,39.48
2023-05-20T02:36:31.705Z,39.48
2023-05-20T02:37:31.718Z,39.49
2023-05-20T02:38:31.766Z,39.48
2023-05-20T02:39:31.736Z,39.48
2023-05-20T02:40:31.795Z,39.49
2023-05-20T02:41:31.842Z,39.49
2023-05-20T02:42:31.868Z,39.46
2023-05-20T02:43:31.911Z,39.46
2023-05-20T02:44:31.923Z,39.47
2023-05-20T02:45:31.978Z,39.48
2023-05-20T02:46:32.084Z,39.49
2023-05-20T02:47:32.065Z,39.47
2023-05-20T02:48:32.064Z,39.48
2023-05-20T02:49:32.088Z,39.49
2023-05-20T02:50:32.124Z,39.48
2023-05-20T02:51:32.155Z,39.47
2023-05-20T02:52:32.277Z,39.47
2023-05-20T02:53:32.212Z,39.47
2023-05-20T02:54:32.263Z,39.45
2023-05-20T02:55:32.384Z,39.48
2023-05-20T02:56:32.346Z,39.46
2023-05-20T02:57:32.408Z,39.46
2023-05-20T02:58:32.454Z,39.42
2023-05-20T02:59:32.487Z,39.46
2023-05-20T03:00:32.532Z,39.44
2023-05-20T03:01:32.659Z,39.46
2023-05-20T03:02:32.657Z,39.45
2023-05-20T03:03:32.637Z,39.46
2023-05-20T03:04:32.753Z,39.47
2023-05-20T03:05:32.946Z,39.48
2023-05-20T03:06:32.765Z,39.47
2023-05-20T03:07:32.800Z,39.48
2023-05-20T03:08:32.834Z,39.49
2023-05-20T03:09:32.868Z,39.50
2023-05-20T03:10:32.905Z,39.46
2023-05-20T03:11:32.997Z,39.47
2023-05-20T03:12:32.984Z,39.49
2023-05-20T03:13:33.031Z,39.47
2023-05-20T03:14:33.058Z,39.47
2023-05-20T03:15:33.372Z,39.48
2023-05-20T03:16:33.221Z,39.47
2023-05-20T03:17:33.178Z,39.48
2023-05-20T03:18:33.222Z,39.49
2023-05-20T03:19:33.276Z,39.48
2023-05-20T03:20:33.229Z,39.50
2023-05-20T03:21:33.251Z,39.49
2023-05-20T03:22:33.245Z,39.51
2023-05-20T03:23:33.303Z,39.50
2023-05-20T03:24:33.335Z,39.52
2023-05-20T03:25:33.603Z,39.52
2023-05-20T03:26:33.406Z,39.50
2023-05-20T03:27:33.442Z,39.50
2023-05-20T03:28:33.441Z,39.49
2023-05-20T03:29:33.474Z,39.50
2023-05-20T03:30:33.495Z,39.48
2023-05-20T03:31:33.573Z,39.47
2023-05-20T03:32:33.593Z,39.49
2023-05-20T03:33:33.613Z,39.50
2023-05-20T03:34:33.664Z,39.49
2023-05-20T03:35:33.843Z,39.47
2023-05-20T03:36:33.726Z,39.49
2023-05-20T03:37:33.765Z,39.49
2023-05-20T03:38:33.830Z,39.48
2023-05-20T03:39:33.865Z,39.46
2023-05-20T03:40:34.017Z,39.47
2023-05-20T03:41:33.939Z,39.48
2023-05-20T03:42:33.984Z,39.48
2023-05-20T03:43:34.033Z,39.47
2023-05-20T03:44:34.062Z,39.49
2023-05-20T03:45:34.289Z,39.48
2023-05-20T03:46:34.193Z,39.46
2023-05-20T03:47:34.183Z,39.45
2023-05-20T03:48:34.175Z,39.45
2023-05-20T03:49:34.202Z,39.46
2023-05-20T03:50:34.257Z,39.46
2023-05-20T03:51:34.323Z,39.48
2023-05-20T03:52:34.350Z,39.47
2023-05-20T03:53:34.380Z,39.46
2023-05-20T03:54:34.390Z,39.46
2023-05-20T03:55:34.630Z,39.45
2023-05-20T03:56:34.521Z,39.46
2023-05-20T03:57:34.517Z,39.47
2023-05-20T03:58:36.141Z,39.47
2023-05-20T03:59:34.542Z,39.47
2023-05-20T04:00:34.566Z,39.46
2023-05-20T04:01:34.621Z,39.46
2023-05-20T04:02:34.664Z,39.47
2023-05-20T04:03:34.733Z,39.47
2023-05-20T04:04:34.640Z,39.45
2023-05-20T04:05:34.848Z,39.45
2023-05-20T04:06:34.685Z,39.45
2023-05-20T04:07:34.704Z,39.48
2023-05-20T04:08:34.751Z,39.46
2023-05-20T04:09:34.767Z,39.47
2023-05-20T04:10:34.794Z,39.47
2023-05-20T04:11:34.818Z,39.46
2023-05-20T04:12:34.826Z,39.46
2023-05-20T04:13:34.902Z,39.43
2023-05-20T04:14:34.873Z,39.45
2023-05-20T04:15:35.046Z,39.45
2023-05-20T04:16:34.957Z,39.46
2023-05-20T04:17:34.960Z,39.47
2023-05-20T04:18:34.979Z,39.47
2023-05-20T04:19:35.024Z,39.46
2023-05-20T04:20:35.013Z,39.46
2023-05-20T04:21:35.012Z,39.47
2023-05-20T04:22:35.039Z,39.44
2023-05-20T04:23:35.080Z,39.45
2023-05-20T04:24:35.102Z,39.45
2023-05-20T04:25:35.236Z,39.45
2023-05-20T04:26:35.189Z,39.44
2023-05-20T04:27:35.225Z,39.44
2023-05-20T04:28:35.265Z,39.43
2023-05-20T04:29:35.277Z,39.46
2023-05-20T04:30:35.333Z,39.47
2023-05-20T04:31:35.439Z,39.44
2023-05-20T04:32:35.433Z,39.43
2023-05-20T04:33:35.420Z,39.45
2023-05-20T04:34:35.467Z,39.44
2023-05-20T04:35:35.693Z,39.44
2023-05-20T04:36:35.524Z,39.45
2023-05-20T04:37:35.557Z,39.46
2023-05-20T04:38:35.621Z,39.45
2023-05-20T04:39:35.595Z,39.46
2023-05-20T04:40:35.679Z,39.43
2023-05-20T04:41:35.681Z,39.45
2023-05-20T04:42:35.714Z,39.44
2023-05-20T04:43:36.166Z,39.46
2023-05-20T04:44:35.744Z,39.46
2023-05-20T04:45:35.861Z,39.43
2023-05-20T04:46:35.894Z,39.46
2023-05-20T04:47:35.830Z,39.44
2023-05-20T04:48:35.843Z,39.43
2023-05-20T04:49:35.871Z,39.43
2023-05-20T04:50:35.912Z,39.42
2023-05-20T04:51:35.957Z,39.44
2023-05-20T04:52:35.959Z,39.44
2023-05-20T04:53:36.039Z,39.44
2023-05-20T04:54:36.028Z,39.43
2023-05-20T04:55:36.131Z,39.42
2023-05-20T04:56:36.130Z,39.43
2023-05-20T04:57:36.183Z,39.40
2023-05-20T04:58:36.290Z,39.42
2023-05-20T04:59:36.262Z,39.41
2023-05-20T05:00:36.337Z,39.39
2023-05-20T05:01:36.425Z,39.41
2023-05-20T05:02:36.427Z,39.42
2023-05-20T05:03:36.963Z,39.41
2023-05-20T05:04:36.565Z,39.38
2023-05-20T05:05:36.540Z,39.40
2023-05-20T05:06:36.588Z,39.37
2023-05-20T05:07:36.638Z,39.39
2023-05-20T05:08:36.681Z,39.36
2023-05-20T05:09:36.763Z,39.38
2023-05-20T05:10:36.767Z,39.36
2023-05-20T05:11:36.813Z,39.37
2023-05-20T05:12:36.860Z,39.35
2023-05-20T05:13:36.904Z,39.36
2023-05-20T05:14:36.940Z,39.37
2023-05-20T05:15:37.110Z,39.34
2023-05-20T05:16:37.021Z,39.36
2023-05-20T05:17:37.093Z,39.35
2023-05-20T05:18:37.110Z,39.35
2023-05-20T05:19:37.176Z,39.34
2023-05-20T05:20:37.177Z,39.35
2023-05-20T05:21:37.228Z,39.36
2023-05-20T05:22:37.283Z,39.35
2023-05-20T05:23:37.325Z,39.36
2023-05-20T05:24:37.359Z,39.32
2023-05-20T05:25:37.415Z,39.34
2023-05-20T05:26:37.452Z,39.33
2023-05-20T05:27:37.497Z,39.28
2023-05-20T05:28:37.568Z,39.31
2023-05-20T05:29:37.636Z,39.31
2023-05-20T05:30:37.670Z,39.31
2023-05-20T05:31:37.697Z,39.29
2023-05-20T05:32:37.839Z,39.31
2023-05-20T05:33:37.802Z,39.31
2023-05-20T05:34:37.843Z,39.30
2023-05-20T05:35:37.874Z,39.30
2023-05-20T05:36:37.921Z,39.32
2023-05-20T05:37:37.958Z,39.31
2023-05-20T05:38:38.719Z,39.34
2023-05-20T05:39:38.046Z,39.31
2023-05-20T05:40:38.095Z,39.32
2023-05-20T05:41:38.145Z,39.30
2023-05-20T05:42:38.225Z,39.31
2023-05-20T05:43:38.309Z,39.29
2023-05-20T05:44:38.315Z,39.33
2023-05-20T05:45:38.361Z,39.34
2023-05-20T05:46:38.431Z,39.30
2023-05-20T05:47:38.481Z,39.28
2023-05-20T05:48:38.525Z,39.30
2023-05-20T05:49:38.573Z,39.28
2023-05-20T05:50:38.617Z,39.29
2023-05-20T05:51:39.176Z,39.27
2023-05-20T05:52:38.721Z,39.27
2023-05-20T05:53:38.784Z,39.27
2023-05-20T05:54:38.814Z,39.28
2023-05-20T05:55:38.874Z,39.29
2023-05-20T05:56:38.936Z,39.30
2023-05-20T05:57:38.975Z,39.28
2023-05-20T05:58:39.053Z,39.29
2023-05-20T05:59:39.090Z,39.29
2023-05-20T06:00:39.155Z,39.29
2023-05-20T06:01:39.218Z,39.28
2023-05-20T06:02:39.326Z,39.28
2023-05-20T06:03:39.393Z,39.29
2023-05-20T06:04:39.333Z,39.29
2023-05-20T06:05:39.369Z,39.32
2023-05-20T06:06:39.434Z,39.30
2023-05-20T06:07:39.475Z,39.30
2023-05-20T06:08:39.534Z,39.29
2023-05-20T06:09:39.578Z,39.28
2023-05-20T06:10:39.614Z,39.29
2023-05-20T06:11:39.681Z,39.29
2023-05-20T06:12:39.712Z,39.31
2023-05-20T06:13:39.764Z,39.32
2023-05-20T06:14:39.805Z,39.33
2023-05-20T06:15:39.870Z,39.31
2023-05-20T06:16:39.978Z,39.31
2023-05-20T06:17:40.013Z,39.32
2023-05-20T06:18:40.091Z,39.31
2023-05-20T06:19:40.144Z,39.32
2023-05-20T06:20:40.119Z,39.32
2023-05-20T06:21:40.140Z,39.32
2023-05-20T06:22:40.204Z,39.35
2023-05-20T06:23:40.237Z,39.33
2023-05-20T06:24:40.289Z,39.32
2023-05-20T06:25:40.340Z,39.34
2023-05-20T06:26:40.372Z,39.33
2023-05-20T06:27:40.395Z,39.30
2023-05-20T06:28:40.449Z,39.32
2023-05-20T06:29:42.389Z,39.37
2023-05-20T06:30:40.512Z,39.35
2023-05-20T06:31:40.480Z,39.35
2023-05-20T06:32:40.501Z,39.34
2023-05-20T06:33:40.478Z,39.36
2023-05-20T06:34:40.463Z,39.38
2023-05-20T06:35:40.476Z,39.36
2023-05-20T06:36:40.461Z,39.33
2023-05-20T06:37:40.461Z,39.32
2023-05-20T06:38:40.454Z,39.31
2023-05-20T06:39:40.438Z,39.34
2023-05-20T06:40:40.433Z,39.32
2023-05-20T06:41:40.453Z,39.32
2023-05-20T06:42:40.414Z,39.33
2023-05-20T06:43:40.427Z,39.35
2023-05-20T06:44:40.413Z,39.36
2023-05-20T06:45:40.410Z,39.34
2023-05-20T06:46:40.423Z,39.35
2023-05-20T06:47:40.428Z,39.34
2023-05-20T06:48:40.412Z,39.33
2023-05-20T06:49:40.386Z,39.35
2023-05-20T06:50:40.367Z,39.32
2023-05-20T06:51:40.361Z,39.35
2023-05-20T06:52:40.359Z,39.34
2023-05-20T06:53:40.377Z,39.32
2023-05-20T06:54:40.353Z,39.34
2023-05-20T06:55:40.363Z,39.34
2023-05-20T06:56:40.338Z,39.33
2023-05-20T06:57:40.327Z,39.32
2023-05-20T06:58:40.300Z,39.31
2023-05-20T06:59:40.305Z,39.29
2023-05-20T07:00:40.285Z,39.31
2023-05-20T07:01:40.295Z,39.30
2023-05-20T07:02:40.301Z,39.31
2023-05-20T07:03:40.326Z,39.31
2023-05-20T07:04:40.271Z,39.29
2023-05-20T07:05:40.280Z,39.29
2023-05-20T07:06:40.244Z,39.29
2023-05-20T07:07:40.241Z,39.27
2023-05-20T07:08:40.246Z,39.29
2023-05-20T07:09:40.250Z,39.29
2023-05-20T07:10:40.317Z,39.29
2023-05-20T07:11:40.360Z,39.31
2023-05-20T07:12:40.418Z,39.29
2023-05-20T07:13:40.474Z,39.27
2023-05-20T07:14:40.491Z,39.21
2023-05-20T07:15:40.609Z,39.21
2023-05-20T07:16:40.752Z,39.19
2023-05-20T07:17:40.709Z,39.22
2023-05-20T07:18:40.767Z,39.25
2023-05-20T07:19:40.743Z,39.21
2023-05-20T07:20:40.805Z,39.20
2023-05-20T07:21:40.830Z,39.18
2023-05-20T07:22:40.886Z,39.17
2023-05-20T07:23:40.946Z,39.18
2023-05-20T07:24:40.997Z,39.20
2023-05-20T07:25:41.098Z,39.22
2023-05-20T07:26:41.097Z,39.19
2023-05-20T07:27:41.142Z,39.21
2023-05-20T07:28:41.231Z,39.19
2023-05-20T07:29:41.223Z,39.16
2023-05-20T07:30:41.263Z,39.18
2023-05-20T07:31:41.404Z,39.19
2023-05-20T07:32:41.401Z,39.19
2023-05-20T07:33:41.450Z,39.17
2023-05-20T07:34:41.437Z,39.14
2023-05-20T07:35:41.478Z,39.16
2023-05-20T07:36:41.531Z,39.16
2023-05-20T07:37:41.589Z,39.16
2023-05-20T07:38:47.230Z,39.14
2023-05-20T07:39:42.597Z,39.16
2023-05-20T07:40:41.589Z,39.20
2023-05-20T07:41:41.586Z,39.17
2023-05-20T07:42:41.568Z,39.14
2023-05-20T07:43:41.599Z,39.15
2023-05-20T07:44:41.580Z,39.17
2023-05-20T07:45:41.644Z,39.16
2023-05-20T07:46:41.706Z,39.16
2023-05-20T07:47:41.595Z,39.15
2023-05-20T07:48:41.553Z,39.14
2023-05-20T07:49:41.558Z,39.14
2023-05-20T07:50:41.610Z,39.13
2023-05-20T07:51:41.660Z,39.12
2023-05-20T07:52:55.314Z,39.13
2023-05-20T07:53:42.710Z,39.11
2023-05-20T07:54:41.722Z,39.14
2023-05-20T07:55:41.690Z,39.10
2023-05-20T07:56:41.690Z,39.08
2023-05-20T07:57:43.002Z,39.08
2023-05-20T07:58:41.680Z,39.08
2023-05-20T07:59:41.662Z,39.07
2023-05-20T08:00:41.661Z,39.08
2023-05-20T08:01:41.649Z,39.09
2023-05-20T08:02:41.776Z,39.07
2023-05-20T08:03:41.819Z,39.07
2023-05-20T08:04:41.669Z,39.08
2023-05-20T08:05:41.639Z,39.07
2023-05-20T08:06:41.624Z,39.08
2023-05-20T08:07:41.639Z,39.05
2023-05-20T08:08:41.597Z,39.06
2023-05-20T08:09:41.597Z,39.01
2023-05-20T08:10:41.588Z,39.01
2023-05-20T08:11:41.636Z,39.01
2023-05-20T08:12:41.588Z,38.99
2023-05-20T08:13:41.567Z,39.00
2023-05-20T08:14:41.560Z,38.99
2023-05-20T08:15:41.543Z,39.02
2023-05-20T08:16:41.555Z,39.05
2023-05-20T08:17:41.546Z,39.02
2023-05-20T08:18:41.560Z,39.03
2023-05-20T08:19:41.529Z,38.98
2023-05-20T08:20:41.512Z,38.99
2023-05-20T08:21:41.488Z,38.98
2023-05-20T08:22:41.492Z,38.96
2023-05-20T08:23:41.495Z,38.95
2023-05-20T08:24:41.467Z,38.96
2023-05-20T08:25:41.482Z,38.97
2023-05-20T08:26:41.465Z,38.96
2023-05-20T08:27:41.452Z,38.95
2023-05-20T08:28:41.438Z,38.93
2023-05-20T08:29:41.439Z,38.92
2023-05-20T08:30:41.515Z,38.91
2023-05-20T08:31:41.466Z,38.91
2023-05-20T08:32:41.473Z,38.91
2023-05-20T08:33:41.413Z,38.89
2023-05-20T08:34:41.426Z,38.90
2023-05-20T08:35:41.396Z,38.85
2023-05-20T08:36:41.398Z,38.91
2023-05-20T08:37:41.377Z,38.88
2023-05-20T08:38:41.394Z,38.88
2023-05-20T08:39:41.365Z,38.87
2023-05-20T08:40:41.356Z,38.89
2023-05-20T08:41:41.353Z,38.89
2023-05-20T08:42:41.347Z,38.85
2023-05-20T08:43:41.343Z,38.91
2023-05-20T08:44:41.330Z,38.86
2023-05-20T08:45:41.324Z,38.85
2023-05-20T08:46:41.392Z,38.85
2023-05-20T08:47:41.370Z,38.88
2023-05-20T08:48:41.305Z,38.89
2023-05-20T08:49:41.332Z,38.92
2023-05-20T08:50:41.373Z,38.97
2023-05-20T08:51:41.418Z,38.98
2023-05-20T08:52:41.468Z,38.99
2023-05-20T08:53:41.513Z,38.96
2023-05-20T08:54:41.537Z,38.99
2023-05-20T08:55:41.601Z,38.99
2023-05-20T08:56:41.639Z,39.00
2023-05-20T08:57:41.656Z,39.01
2023-05-20T08:58:41.714Z,39.01
2023-05-20T08:59:41.765Z,38.98
2023-05-20T09:00:41.778Z,38.94
2023-05-20T09:01:41.840Z,38.98
2023-05-20T09:02:41.883Z,38.93
2023-05-20T09:03:41.908Z,38.95
2023-05-20T09:04:41.982Z,38.97
2023-05-20T09:05:41.954Z,38.93
2023-05-20T09:06:41.983Z,38.91
2023-05-20T09:07:42.009Z,38.91
2023-05-20T09:08:42.065Z,38.94
2023-05-20T09:09:42.101Z,38.88
2023-05-20T09:10:42.107Z,38.88
2023-05-20T09:11:42.135Z,38.87
2023-05-20T09:12:42.154Z,38.85
2023-05-20T09:13:42.230Z,38.86
2023-05-20T09:14:42.218Z,38.83
2023-05-20T09:15:42.250Z,38.85
2023-05-20T09:16:42.336Z,38.84
2023-05-20T09:17:42.368Z,38.83
2023-05-20T09:18:42.362Z,38.80
2023-05-20T09:19:42.366Z,38.83
2023-05-20T09:20:42.369Z,38.82
2023-05-20T09:21:42.412Z,38.78
2023-05-20T09:22:42.407Z,38.79
2023-05-20T09:23:42.438Z,38.81
2023-05-20T09:24:42.461Z,38.77
2023-05-20T09:25:42.492Z,38.78
2023-05-20T09:26:42.539Z,38.77
2023-05-20T09:27:42.530Z,38.78
2023-05-20T09:28:42.570Z,38.75
2023-05-20T09:29:42.583Z,38.73
2023-05-20T09:30:44.498Z,38.76
2023-05-20T09:31:42.674Z,38.76
2023-05-20T09:32:42.637Z,38.78
2023-05-20T09:33:42.596Z,38.70
2023-05-20T09:34:42.599Z,38.71
2023-05-20T09:35:42.577Z,38.75
2023-05-20T09:36:42.576Z,38.76
2023-05-20T09:37:42.565Z,38.78
2023-05-20T09:38:42.563Z,38.79
2023-05-20T09:39:42.541Z,38.82
2023-05-20T09:40:42.547Z,38.78
2023-05-20T09:41:42.539Z,38.83
2023-05-20T09:42:42.503Z,38.79
2023-05-20T09:43:42.564Z,38.75
2023-05-20T09:44:42.529Z,38.76
2023-05-20T09:45:42.560Z,38.77
2023-05-20T09:46:42.508Z,38.73
2023-05-20T09:47:42.568Z,38.76
2023-05-20T09:48:42.496Z,38.75
2023-05-20T09:49:42.492Z,38.73
2023-05-20T09:50:42.481Z,38.78
2023-05-20T09:51:42.462Z,38.77
2023-05-20T09:52:42.470Z,38.75
2023-05-20T09:53:42.463Z,38.76
2023-05-20T09:54:42.444Z,38.81
2023-05-20T09:55:42.430Z,38.81
2023-05-20T09:56:42.445Z,38.79
2023-05-20T09:57:42.432Z,38.81
2023-05-20T09:58:42.825Z,38.83
2023-05-20T09:59:42.454Z,38.82
2023-05-20T10:00:42.414Z,38.84
2023-05-20T10:01:42.516Z,38.83
2023-05-20T10:02:42.523Z,38.81
2023-05-20T10:03:44.410Z,38.80
2023-05-20T10:04:42.404Z,38.81
2023-05-20T10:05:42.373Z,38.78
2023-05-20T10:06:42.380Z,38.78
2023-05-20T10:07:42.758Z,38.80
2023-05-20T10:08:42.357Z,38.84
2023-05-20T10:09:42.349Z,38.85
2023-05-20T10:10:42.350Z,38.81
2023-05-20T10:11:42.340Z,38.82
2023-05-20T10:12:42.332Z,38.83
2023-05-20T10:13:42.319Z,38.85
2023-05-20T10:14:42.344Z,38.88
2023-05-20T10:15:42.336Z,38.82
2023-05-20T10:16:42.288Z,38.83
2023-05-20T10:17:42.311Z,38.79
2023-05-20T10:18:42.340Z,38.82
2023-05-20T10:19:42.314Z,38.79
2023-05-20T10:20:42.319Z,38.79
2023-05-20T10:21:42.343Z,38.77
2023-05-20T10:22:42.385Z,38.70
2023-05-20T10:23:42.398Z,38.74
2023-05-20T10:24:42.412Z,38.68
2023-05-20T10:25:42.400Z,38.71
2023-05-20T10:26:42.441Z,38.69
2023-05-20T10:27:42.423Z,38.72
2023-05-20T10:28:42.439Z,38.70
2023-05-20T10:29:42.442Z,38.65
2023-05-20T10:30:44.389Z,38.66
2023-05-20T10:31:42.471Z,38.66
2023-05-20T10:32:42.541Z,38.65
2023-05-20T10:33:42.573Z,38.65
2023-05-20T10:34:42.552Z,38.64
2023-05-20T10:35:42.544Z,38.64
2023-05-20T10:36:42.789Z,38.58
2023-05-20T10:37:42.570Z,38.56
2023-05-20T10:38:42.575Z,38.59
2023-05-20T10:39:42.616Z,38.59
2023-05-20T10:40:42.601Z,38.56
2023-05-20T10:41:42.596Z,38.56
2023-05-20T10:42:42.613Z,38.54
2023-05-20T10:43:42.613Z,38.52
2023-05-20T10:44:42.637Z,38.53
2023-05-20T10:45:42.636Z,38.56
2023-05-20T10:47:43.684Z,38.55
2023-05-20T10:48:42.759Z,38.56
2023-05-20T10:49:42.611Z,38.56
2023-05-20T10:50:42.603Z,38.56
2023-05-20T10:51:42.601Z,38.54
2023-05-20T10:52:42.601Z,38.56
2023-05-20T10:53:42.603Z,38.56
2023-05-20T10:54:42.581Z,38.55
2023-05-20T10:55:42.587Z,38.56
2023-05-20T10:56:42.572Z,38.57
2023-05-20T10:57:42.561Z,38.55
2023-05-20T10:58:42.550Z,38.54
2023-05-20T10:59:42.551Z,38.55
2023-05-20T11:00:42.597Z,38.59
2023-05-20T11:01:42.667Z,38.58
2023-05-20T11:02:42.578Z,38.60
2023-05-20T11:03:42.620Z,38.58
2023-05-20T11:04:42.522Z,38.57
2023-05-20T11:05:42.511Z,38.61
2023-05-20T11:06:42.518Z,38.57
2023-05-20T11:07:42.501Z,38.59
2023-05-20T11:08:42.520Z,38.59
2023-05-20T11:09:42.493Z,38.60
2023-05-20T11:10:42.489Z,38.61
2023-05-20T11:11:42.500Z,38.59
2023-05-20T11:12:42.528Z,38.63
2023-05-20T11:13:42.515Z,38.63
2023-05-20T11:14:42.570Z,38.60
2023-05-20T11:15:42.600Z,38.58
2023-05-20T11:16:42.613Z,38.61
2023-05-20T11:17:42.660Z,38.59
2023-05-20T11:18:42.673Z,38.57
2023-05-20T11:19:42.629Z,38.58
2023-05-20T11:20:42.639Z,38.54
2023-05-20T11:21:42.663Z,38.55
2023-05-20T11:22:42.684Z,38.54
2023-05-20T11:23:42.676Z,38.56
2023-05-20T11:24:42.713Z,38.57
2023-05-20T11:25:42.718Z,38.58
2023-05-20T11:26:42.785Z,38.55
2023-05-20T11:27:42.818Z,38.60
2023-05-20T11:28:42.835Z,38.59
2023-05-20T11:29:42.840Z,38.57
2023-05-20T11:30:42.864Z,38.61
2023-05-20T11:31:42.851Z,38.62
2023-05-20T11:32:42.913Z,38.63
2023-05-20T11:33:42.894Z,38.61
2023-05-20T11:34:42.878Z,38.62
2023-05-20T11:35:42.882Z,38.60
2023-05-20T11:36:42.892Z,38.59
2023-05-20T11:37:42.892Z,38.58
2023-05-20T11:38:42.926Z,38.59
2023-05-20T11:39:42.944Z,38.58
2023-05-20T11:40:50.542Z,38.58
2023-05-20T11:41:43.946Z,38.60
2023-05-20T11:42:42.943Z,38.58
2023-05-20T11:43:42.998Z,38.61
2023-05-20T11:44:42.916Z,38.59
2023-05-20T11:45:42.930Z,38.55
2023-05-20T11:46:43.044Z,38.53
2023-05-20T11:47:42.956Z,38.55
2023-05-20T11:48:42.904Z,38.58
2023-05-20T11:49:42.915Z,38.56
2023-05-20T11:50:42.893Z,38.56
2023-05-20T11:51:42.902Z,38.53
2023-05-20T11:52:42.869Z,38.57
2023-05-20T11:53:42.880Z,38.54
2023-05-20T11:54:42.877Z,38.54
2023-05-20T11:55:42.898Z,38.52
2023-05-20T11:56:42.846Z,38.53
2023-05-20T11:57:42.842Z,38.53
2023-05-20T11:58:42.854Z,38.53
2023-05-20T11:59:42.846Z,38.55
2023-05-20T12:00:50.581Z,38.56
2023-05-20T12:01:43.857Z,38.55
2023-05-20T12:02:42.889Z,38.54
2023-05-20T12:03:42.937Z,38.57
2023-05-20T12:04:42.911Z,38.55
2023-05-20T12:05:42.798Z,38.56
2023-05-20T12:06:42.785Z,38.55
2023-05-20T12:07:42.788Z,38.56
2023-05-20T12:08:42.762Z,38.54
2023-05-20T12:09:42.777Z,38.54
2023-05-20T12:10:42.752Z,38.55
2023-05-20T12:11:42.759Z,38.57
2023-05-20T12:12:42.742Z,38.54
2023-05-20T12:13:42.740Z,38.54
2023-05-20T12:14:42.753Z,38.57
2023-05-20T12:15:42.812Z,38.54
2023-05-20T12:16:42.761Z,38.59
2023-05-20T12:17:42.768Z,38.54
2023-05-20T12:18:42.750Z,38.53
2023-05-20T12:19:42.716Z,38.53
2023-05-20T12:20:42.687Z,38.56
2023-05-20T12:21:42.706Z,38.52
2023-05-20T12:22:42.703Z,38.55
2023-05-20T12:23:42.681Z,38.50
2023-05-20T12:24:42.677Z,38.47
2023-05-20T12:25:42.651Z,38.50
2023-05-20T12:26:42.636Z,38.52
2023-05-20T12:27:42.654Z,38.48
2023-05-20T12:28:42.620Z,38.48
2023-05-20T12:29:42.631Z,38.45
2023-05-20T12:30:42.644Z,38.46
2023-05-20T12:31:42.717Z,38.49
2023-05-20T12:32:42.720Z,38.47
2023-05-20T12:33:42.671Z,38.49
2023-05-20T12:34:42.728Z,38.46
2023-05-20T12:35:42.692Z,38.48
2023-05-20T12:36:42.714Z,38.47
2023-05-20T12:37:42.729Z,38.47
2023-05-20T12:38:42.770Z,38.50
2023-05-20T12:39:42.781Z,38.49
2023-05-20T12:40:42.773Z,38.48
2023-05-20T12:41:42.792Z,38.48
2023-05-20T12:42:42.807Z,38.48
2023-05-20T12:43:42.845Z,38.49
2023-05-20T12:44:42.811Z,38.49
2023-05-20T12:45:42.848Z,38.48
2023-05-20T12:46:42.863Z,38.46
2023-05-20T12:47:42.889Z,38.47
2023-05-20T12:48:42.886Z,38.43
2023-05-20T12:49:42.849Z,38.45
2023-05-20T12:50:42.873Z,38.44
2023-05-20T12:51:42.873Z,38.45
2023-05-20T12:52:42.889Z,38.43
2023-05-20T12:53:42.929Z,38.43